AIZ1071 LLBG-LGRP
Flight info
| Callsign | AIZ1071 |
|---|---|
| Flight time | N/A |
| Altitude | 32000 |
| Route | SUVAS N128 FOXLI |
| Aircraft | A21N/M-SDE2E3FGHIRWXY/LB1 |
Departure
| Time | 2026-05-07 14:20 |
|---|---|
| Airport | Ben Gurion International Airport (LLBG) |
Arrival
| Time | N/A |
|---|---|
| Airport | Rhodes International Airport "Diagoras" (LGRP) |
| Time | Latitude | Longitude | Altitude | Speed | Heading |
|---|---|---|---|---|---|
| 2026-05-07 13:57 | 32.00599 | 34.87493 | 119 ft | 0 kts | 243° |
| 2026-05-07 13:58 | 32.00603 | 34.87501 | 119 ft | 0 kts | 243° |
| 2026-05-07 14:11 | 32.00605 | 34.87505 | 123 ft | 3 kts | 243° |
| 2026-05-07 14:11 | 32.00617 | 34.87533 | 119 ft | 4 kts | 243° |
| 2026-05-07 14:11 | 32.00627 | 34.87556 | 118 ft | 4 kts | 228° |
| 2026-05-07 14:12 | 32.00646 | 34.87569 | 119 ft | 4 kts | 165° |
| 2026-05-07 14:12 | 32.00660 | 34.87559 | 120 ft | 1 kts | 120° |
| 2026-05-07 14:12 | 32.00649 | 34.87579 | 119 ft | 4 kts | 122° |
| 2026-05-07 14:12 | 32.00635 | 34.87606 | 121 ft | 4 kts | 122° |
| 2026-05-07 14:13 | 32.00628 | 34.87619 | 122 ft | 1 kts | 121° |
| 2026-05-07 14:15 | 32.00574 | 34.87724 | 122 ft | 29 kts | 122° |
| 2026-05-07 14:15 | 32.00525 | 34.87852 | 119 ft | 6 kts | 75° |
| 2026-05-07 14:15 | 32.00579 | 34.87911 | 119 ft | 13 kts | 32° |
| 2026-05-07 14:16 | 32.00604 | 34.87930 | 118 ft | 0 kts | 31° |
| 2026-05-07 14:16 | 32.00615 | 34.87938 | 120 ft | 4 kts | 31° |
| 2026-05-07 14:16 | 32.00634 | 34.87951 | 119 ft | 0 kts | 32° |
| 2026-05-07 14:17 | 32.00646 | 34.87961 | 121 ft | 4 kts | 32° |
| 2026-05-07 14:17 | 32.00696 | 34.87996 | 120 ft | 13 kts | 31° |
| 2026-05-07 14:17 | 32.00845 | 34.88105 | 121 ft | 31 kts | 31° |
| 2026-05-07 14:17 | 32.01076 | 34.88273 | 120 ft | 44 kts | 30° |
| 2026-05-07 14:18 | 32.01324 | 34.88475 | 120 ft | 43 kts | 44° |
| 2026-05-07 14:18 | 32.01480 | 34.88772 | 119 ft | 42 kts | 74° |
| 2026-05-07 14:18 | 32.01537 | 34.89111 | 121 ft | 32 kts | 79° |
| 2026-05-07 14:18 | 32.01592 | 34.89255 | 120 ft | 14 kts | 20° |
| 2026-05-07 14:19 | 32.01652 | 34.89258 | 118 ft | 0 kts | 352° |
| 2026-05-07 14:19 | 32.01658 | 34.89257 | 118 ft | 8 kts | 353° |
| 2026-05-07 14:19 | 32.01753 | 34.89230 | 119 ft | 5 kts | 323° |
| 2026-05-07 14:20 | 32.01762 | 34.89199 | 120 ft | 5 kts | 270° |
| 2026-05-07 14:20 | 32.01724 | 34.88940 | 124 ft | 71 kts | 260° |
| 2026-05-07 14:20 | 32.01581 | 34.87997 | 122 ft | 161 kts | 260° |
| 2026-05-07 14:20 | 32.01368 | 34.86647 | 929 ft | 162 kts | 266° |
| 2026-05-07 14:21 | 32.01099 | 34.85328 | 1985 ft | 172 kts | 262° |
| 2026-05-07 14:21 | 32.00776 | 34.83907 | 3009 ft | 185 kts | 261° |
| 2026-05-07 14:21 | 32.00446 | 34.82338 | 3856 ft | 211 kts | 259° |
| 2026-05-07 14:21 | 32.00111 | 34.80567 | 4667 ft | 232 kts | 258° |
| 2026-05-07 14:22 | 31.99748 | 34.78686 | 5640 ft | 243 kts | 257° |
| 2026-05-07 14:22 | 31.99360 | 34.76718 | 6771 ft | 246 kts | 257° |
| 2026-05-07 14:22 | 31.99188 | 34.74710 | 7859 ft | 254 kts | 277° |
| 2026-05-07 14:22 | 31.99687 | 34.72644 | 8822 ft | 271 kts | 290° |
| 2026-05-07 14:23 | 32.00380 | 34.70539 | 10006 ft | 279 kts | 291° |
| 2026-05-07 14:23 | 32.01113 | 34.68348 | 10884 ft | 299 kts | 290° |
| 2026-05-07 14:23 | 32.01882 | 34.65986 | 11724 ft | 315 kts | 289° |
| 2026-05-07 14:23 | 32.02654 | 34.63555 | 12936 ft | 318 kts | 285° |
| 2026-05-07 14:24 | 32.02934 | 34.60962 | 14081 ft | 325 kts | 273° |
| 2026-05-07 14:24 | 32.03060 | 34.58270 | 15068 ft | 329 kts | 273° |
| 2026-05-07 14:24 | 32.03158 | 34.55568 | 16156 ft | 334 kts | 274° |
| 2026-05-07 14:24 | 32.03273 | 34.52789 | 17024 ft | 344 kts | 274° |
| 2026-05-07 14:25 | 32.03485 | 34.49969 | 18036 ft | 348 kts | 280° |
| 2026-05-07 14:25 | 32.04027 | 34.47200 | 18888 ft | 353 kts | 287° |
| 2026-05-07 14:25 | 32.04719 | 34.44406 | 19770 ft | 357 kts | 288° |
| 2026-05-07 14:25 | 32.05460 | 34.41593 | 20670 ft | 361 kts | 289° |
| 2026-05-07 14:26 | 32.06222 | 34.38764 | 21546 ft | 364 kts | 289° |
| 2026-05-07 14:26 | 32.06999 | 34.35902 | 22410 ft | 368 kts | 289° |
| 2026-05-07 14:26 | 32.07786 | 34.33011 | 23272 ft | 372 kts | 289° |
| 2026-05-07 14:26 | 32.08581 | 34.30095 | 24051 ft | 375 kts | 289° |
| 2026-05-07 14:27 | 32.09383 | 34.27150 | 24738 ft | 379 kts | 288° |
| 2026-05-07 14:27 | 32.10192 | 34.24178 | 25418 ft | 382 kts | 288° |
| 2026-05-07 14:27 | 32.11010 | 34.21175 | 26077 ft | 386 kts | 288° |
| 2026-05-07 14:27 | 32.11831 | 34.18153 | 26723 ft | 389 kts | 288° |
| 2026-05-07 14:28 | 32.12659 | 34.15102 | 27353 ft | 392 kts | 288° |
| 2026-05-07 14:28 | 32.13493 | 34.12030 | 27956 ft | 395 kts | 288° |
| 2026-05-07 14:28 | 32.14332 | 34.08931 | 28543 ft | 398 kts | 287° |
| 2026-05-07 14:28 | 32.15177 | 34.05810 | 29115 ft | 401 kts | 287° |
| 2026-05-07 14:29 | 32.16026 | 34.02670 | 29666 ft | 404 kts | 287° |
| 2026-05-07 14:29 | 32.16856 | 33.99488 | 30196 ft | 407 kts | 287° |
| 2026-05-07 14:29 | 32.18029 | 33.96439 | 30607 ft | 411 kts | 300° |
| 2026-05-07 14:29 | 32.19613 | 33.93678 | 31163 ft | 411 kts | 305° |
| 2026-05-07 14:30 | 32.21365 | 33.91021 | 31749 ft | 410 kts | 307° |
| 2026-05-07 14:30 | 32.23152 | 33.88392 | 32036 ft | 409 kts | 307° |
| 2026-05-07 14:30 | 32.24909 | 33.85760 | 32079 ft | 408 kts | 306° |
| 2026-05-07 14:31 | 32.28320 | 33.80389 | 32079 ft | 407 kts | 305° |
| 2026-05-07 14:31 | 32.31616 | 33.74952 | 32083 ft | 407 kts | 304° |
| 2026-05-07 14:32 | 32.34881 | 33.69485 | 32079 ft | 407 kts | 304° |
| 2026-05-07 14:32 | 32.38121 | 33.64056 | 32085 ft | 406 kts | 304° |
| 2026-05-07 14:33 | 32.41428 | 33.58519 | 32088 ft | 423 kts | 304° |
| 2026-05-07 14:33 | 32.44895 | 33.52714 | 32083 ft | 434 kts | 304° |
| 2026-05-07 14:34 | 32.48381 | 33.46870 | 32086 ft | 434 kts | 304° |
| 2026-05-07 14:34 | 32.51874 | 33.41007 | 32086 ft | 435 kts | 304° |
| 2026-05-07 14:35 | 32.55357 | 33.35149 | 32089 ft | 434 kts | 304° |
| 2026-05-07 14:35 | 32.58815 | 33.29322 | 32089 ft | 434 kts | 304° |
| 2026-05-07 14:36 | 32.62290 | 33.23457 | 32091 ft | 435 kts | 304° |
| 2026-05-07 14:36 | 32.65765 | 33.17585 | 32091 ft | 435 kts | 304° |
| 2026-05-07 14:37 | 32.69234 | 33.11712 | 32095 ft | 434 kts | 304° |
| 2026-05-07 14:37 | 32.74420 | 33.02917 | 32094 ft | 433 kts | 304° |
| 2026-05-07 14:38 | 32.77866 | 32.97061 | 32091 ft | 432 kts | 304° |
| 2026-05-07 14:38 | 32.81313 | 32.91194 | 32094 ft | 432 kts | 304° |
| 2026-05-07 14:39 | 32.84751 | 32.85333 | 32094 ft | 432 kts | 305° |
| 2026-05-07 14:39 | 32.88183 | 32.79474 | 32097 ft | 431 kts | 305° |
| 2026-05-07 14:40 | 32.91614 | 32.73607 | 32097 ft | 431 kts | 305° |
| 2026-05-07 14:40 | 32.95039 | 32.67741 | 32100 ft | 431 kts | 305° |
| 2026-05-07 14:41 | 32.98442 | 32.61904 | 32099 ft | 431 kts | 305° |
| 2026-05-07 14:41 | 33.01855 | 32.56032 | 32102 ft | 430 kts | 305° |
| 2026-05-07 14:42 | 33.04712 | 32.51119 | 32102 ft | 430 kts | 305° |
| 2026-05-07 14:42 | 33.08095 | 32.45293 | 32105 ft | 430 kts | 305° |
| 2026-05-07 14:43 | 33.11496 | 32.39425 | 32105 ft | 430 kts | 305° |
| 2026-05-07 14:43 | 33.14900 | 32.33539 | 32103 ft | 430 kts | 305° |
| 2026-05-07 14:44 | 33.18285 | 32.27674 | 32115 ft | 428 kts | 306° |
| 2026-05-07 14:44 | 33.21643 | 32.21853 | 32110 ft | 427 kts | 306° |
| 2026-05-07 14:45 | 33.25015 | 32.15999 | 32110 ft | 427 kts | 306° |
| 2026-05-07 14:45 | 33.28379 | 32.10148 | 32110 ft | 427 kts | 306° |
| 2026-05-07 14:46 | 33.31738 | 32.04295 | 32113 ft | 426 kts | 306° |
| 2026-05-07 14:46 | 33.35091 | 31.98443 | 32114 ft | 426 kts | 306° |
| 2026-05-07 14:47 | 33.38437 | 31.92595 | 32116 ft | 426 kts | 306° |
| 2026-05-07 14:47 | 33.41779 | 31.86746 | 32116 ft | 425 kts | 306° |
| 2026-05-07 14:48 | 33.45117 | 31.80893 | 32116 ft | 426 kts | 306° |
| 2026-05-07 14:48 | 33.48450 | 31.75039 | 32116 ft | 425 kts | 306° |